Time;durP1;ratioP1;P1;durP2;ratioP2;P2;SDS_P1;SDS_P2;PMS_P1;PMS_P2;Temp;Humidity;BMP_temperature;BMP_pressure;BME280_temperature;BME280_humidity;BME280_pressure;Samples;Min_cycle;Max_cycle;Signal;HPM_P1;HPM_P2
2022/05/23 00:03:35;;;;;;;3.90;3.50;;;;;;;;;;10477164;28;20054;-79
2022/05/23 00:08:35;;;;;;;4.32;3.83;;;;;;;;;;10437547;28;20185;-78
2022/05/23 00:13:36;;;;;;;3.77;3.37;;;;;;;;;;10483620;28;20453;-77
2022/05/23 00:18:36;;;;;;;4.43;4.00;;;;;;;;;;10476409;28;20155;-76
2022/05/23 00:23:36;;;;;;;4.00;3.53;;;;;;;;;;10470521;28;20906;-75
2022/05/23 00:28:38;;;;;;;3.83;3.43;;;;;;;;;;10452797;28;20524;-79
2022/05/23 00:38:59;;;;;;;4.00;3.70;;;;;;;;;;10474628;28;20067;-78
2022/05/23 00:44:01;;;;;;;4.33;3.70;;;;;;;;;;10460858;28;20041;-77
2022/05/23 00:49:03;;;;;;;4.60;3.28;;;;;;;;;;10454058;28;20411;-77
2022/05/23 00:54:04;;;;;;;4.28;3.85;;;;;;;;;;10474757;28;20045;-78
2022/05/23 00:59:08;;;;;;;5.55;3.80;;;;;;;;;;10484743;28;20488;-78
2022/05/23 01:04:12;;;;;;;5.10;3.83;;;;;;;;;;10446118;28;20065;-79
2022/05/23 01:09:15;;;;;;;6.47;4.00;;;;;;;;;;10482165;28;20214;-79
2022/05/23 01:14:15;;;;;;;4.95;4.10;;;;;;;;;;10513609;28;20044;-78
2022/05/23 01:19:16;;;;;;;4.80;4.13;;;;;;;;;;10492320;28;20048;-79
2022/05/23 01:24:16;;;;;;;3.85;3.50;;;;;;;;;;10483416;28;20032;-79
2022/05/23 01:29:23;;;;;;;4.60;3.47;;;;;;;;;;10439546;28;20057;-80
2022/05/23 01:34:29;;;;;;;3.90;3.50;;;;;;;;;;10453089;28;20052;-77
2022/05/23 01:39:40;;;;;;;5.78;4.47;;;;;;;;;;10437499;28;20124;-78
2022/05/23 01:44:41;;;;;;;4.37;3.87;;;;;;;;;;10468492;28;20049;-78
2022/05/23 01:49:49;;;;;;;4.13;3.83;;;;;;;;;;10447363;28;20364;-80
2022/05/23 01:55:08;;;;;;;4.22;3.83;;;;;;;;;;10416524;28;20482;-80
2022/05/23 02:05:37;;;;;;;4.53;3.60;;;;;;;;;;10458307;28;20044;-80
2022/05/23 02:10:43;;;;;;;5.10;4.03;;;;;;;;;;10488325;28;20064;-79
2022/05/23 02:15:47;;;;;;;5.35;3.90;;;;;;;;;;10460036;28;20048;-81
2022/05/23 02:21:06;;;;;;;5.57;4.10;;;;;;;;;;10491655;28;20135;-78
2022/05/23 02:26:06;;;;;;;4.30;3.90;;;;;;;;;;10489045;28;20104;-79
2022/05/23 02:31:16;;;;;;;4.78;4.30;;;;;;;;;;10465895;28;20364;-78
2022/05/23 02:36:37;;;;;;;4.28;3.90;;;;;;;;;;10485666;28;20174;-79
2022/05/23 02:41:38;;;;;;;4.38;3.90;;;;;;;;;;10451642;28;20511;-78
2022/05/23 02:46:39;;;;;;;4.38;3.97;;;;;;;;;;10470361;28;20041;-80
2022/05/23 02:51:44;;;;;;;4.55;3.97;;;;;;;;;;10453285;28;20144;-80
2022/05/23 02:56:46;;;;;;;5.65;4.30;;;;;;;;;;10462195;28;20102;-80
2022/05/23 03:07:16;;;;;;;4.68;3.97;;;;;;;;;;10448860;28;20479;-79
2022/05/23 03:12:38;;;;;;;5.85;4.72;;;;;;;;;;10462270;28;20056;-79
2022/05/23 03:17:40;;;;;;;4.25;3.65;;;;;;;;;;10465395;28;21310;-79
2022/05/23 03:28:01;;;;;;;4.45;4.03;;;;;;;;;;10455940;28;20112;-77
2022/05/23 03:33:04;;;;;;;5.45;3.97;;;;;;;;;;10424125;28;20060;-77
2022/05/23 03:38:05;;;;;;;5.13;4.63;;;;;;;;;;10455880;28;20055;-79
2022/05/23 03:43:11;;;;;;;4.97;4.40;;;;;;;;;;10455223;28;20059;-79
2022/05/23 03:48:13;;;;;;;4.70;4.20;;;;;;;;;;10475758;28;20037;-80
2022/05/23 03:53:14;;;;;;;6.63;4.07;;;;;;;;;;10476498;28;20052;-79
2022/05/23 03:58:21;;;;;;;5.32;4.38;;;;;;;;;;10454784;28;20555;-78
2022/05/23 04:03:40;;;;;;;5.68;4.32;;;;;;;;;;10448029;28;20071;-79
2022/05/23 04:08:45;;;;;;;5.63;4.50;;;;;;;;;;10451332;28;20037;-79
2022/05/23 04:13:46;;;;;;;6.00;5.40;;;;;;;;;;10480841;28;20160;-80
2022/05/23 04:18:46;;;;;;;5.68;4.72;;;;;;;;;;10490306;28;20052;-82
2022/05/23 04:23:49;;;;;;;5.30;4.80;;;;;;;;;;10454796;28;20052;-79
2022/05/23 04:28:49;;;;;;;4.90;4.40;;;;;;;;;;10461649;28;20068;-77
2022/05/23 04:39:09;;;;;;;5.55;4.63;;;;;;;;;;10467483;28;20052;-75
2022/05/23 04:44:11;;;;;;;;;;;;;;;;;;10497683;28;20100;-76
2022/05/23 04:54:44;;;;;;;5.43;4.93;;;;;;;;;;10455644;28;20040;-78
2022/05/23 04:59:47;;;;;;;5.18;4.65;;;;;;;;;;10469584;28;20044;-77
2022/05/23 05:04:56;;;;;;;7.05;5.15;;;;;;;;;;10494837;28;20104;-80
2022/05/23 05:09:57;;;;;;;6.95;4.65;;;;;;;;;;10496123;28;20036;-79
2022/05/23 05:15:00;;;;;;;4.97;4.57;;;;;;;;;;10513473;28;20047;-79
2022/05/23 05:20:01;;;;;;;5.13;4.65;;;;;;;;;;10476047;28;20055;-79
2022/05/23 05:25:21;;;;;;;5.40;4.65;;;;;;;;;;10479521;28;20044;-78
2022/05/23 05:30:30;;;;;;;5.78;4.50;;;;;;;;;;10479822;28;20115;-79
2022/05/23 05:35:32;;;;;;;6.28;4.65;;;;;;;;;;10455557;28;20127;-76
2022/05/23 05:40:34;;;;;;;4.60;4.20;;;;;;;;;;10443840;28;20041;-78
2022/05/23 05:45:40;;;;;;;4.60;4.20;;;;;;;;;;10466749;28;20040;-77
2022/05/23 05:50:56;;;;;;;5.78;4.82;;;;;;;;;;10467384;28;20098;-77
2022/05/23 05:56:03;;;;;;;6.35;4.25;;;;;;;;;;10488186;28;20044;-78
2022/05/23 06:01:04;;;;;;;4.85;4.45;;;;;;;;;;10449331;28;20181;-77
2022/05/23 06:11:35;;;;;;;4.57;4.07;;;;;;;;;;10479594;28;20040;-79
2022/05/23 06:16:50;;;;;;;4.57;4.18;;;;;;;;;;10447968;28;20164;-80
2022/05/23 06:21:59;;;;;;;9.52;6.78;;;;;;;;;;10466216;28;20054;-76
2022/05/23 06:27:00;;;;;;;4.30;3.90;;;;;;;;;;10454284;28;20095;-75
2022/05/23 06:32:28;;;;;;;5.07;4.57;;;;;;;;;;10455455;28;20121;-77
2022/05/23 06:37:47;;;;;;;6.45;4.85;;;;;;;;;;10461701;28;20041;-76
2022/05/23 06:43:06;;;;;;;6.15;5.00;;;;;;;;;;10459638;28;20078;-76
2022/05/23 06:48:27;;;;;;;5.38;4.65;;;;;;;;;;10475178;28;20096;-76
2022/05/23 06:53:38;;;;;;;5.13;4.60;;;;;;;;;;10453632;28;20032;-77
2022/05/23 06:58:50;;;;;;;7.25;5.28;;;;;;;;;;10463780;28;20048;-77
2022/05/23 07:04:08;;;;;;;5.18;4.60;;;;;;;;;;10460250;28;20052;-77
2022/05/23 07:14:32;;;;;;;5.75;5.13;;;;;;;;;;10461624;28;20036;-76
2022/05/23 07:19:36;;;;;;;7.37;5.67;;;;;;;;;;10452883;28;20122;-73
2022/05/23 07:24:41;;;;;;;6.47;5.18;;;;;;;;;;10467065;28;20041;-79
2022/05/23 07:29:47;;;;;;;5.70;5.03;;;;;;;;;;10456136;28;20150;-75
2022/05/23 07:34:48;;;;;;;6.70;5.57;;;;;;;;;;10480107;28;20116;-75
2022/05/23 07:39:49;;;;;;;7.28;6.50;;;;;;;;;;10441794;28;20072;-77
2022/05/23 07:45:14;;;;;;;9.32;6.13;;;;;;;;;;10451323;28;20045;-76
2022/05/23 07:50:19;;;;;;;9.35;6.60;;;;;;;;;;10464702;28;20045;-77
2022/05/23 08:00:42;;;;;;;6.95;6.25;;;;;;;;;;10449246;28;20155;-79
2022/05/23 08:05:54;;;;;;;6.28;5.68;;;;;;;;;;10474540;28;20507;-76
2022/05/23 08:10:55;;;;;;;8.95;7.47;;;;;;;;;;10465759;28;20125;-74
2022/05/23 08:15:56;;;;;;;8.15;6.03;;;;;;;;;;10426021;28;20679;-75
2022/05/23 08:20:57;;;;;;;5.88;5.28;;;;;;;;;;10468413;28;20053;-75
2022/05/23 08:26:04;;;;;;;11.98;7.43;;;;;;;;;;10478965;28;20057;-74
2022/05/23 08:31:09;;;;;;;6.50;4.57;;;;;;;;;;10476347;28;20032;-77
2022/05/23 08:36:18;;;;;;;5.75;5.10;;;;;;;;;;10461693;28;20048;-76
2022/05/23 08:41:23;;;;;;;6.75;5.47;;;;;;;;;;10498950;28;20025;-83
2022/05/23 08:46:34;;;;;;;6.70;4.80;;;;;;;;;;10484022;28;20043;-77
2022/05/23 08:51:41;;;;;;;4.68;4.28;;;;;;;;;;10465232;28;20119;-77
2022/05/23 08:56:52;;;;;;;5.05;4.55;;;;;;;;;;10460650;28;20057;-78
2022/05/23 09:01:58;;;;;;;5.47;4.72;;;;;;;;;;10462928;28;20074;-79
2022/05/23 09:07:00;;;;;;;5.10;4.55;;;;;;;;;;10459452;28;20380;-75
2022/05/23 09:12:19;;;;;;;6.20;4.53;;;;;;;;;;10497450;28;20041;-76
2022/05/23 09:17:21;;;;;;;6.75;4.97;;;;;;;;;;10508753;28;20207;-75
2022/05/23 09:22:28;;;;;;;5.75;4.75;;;;;;;;;;10450919;28;20064;-79
2022/05/23 09:27:30;;;;;;;5.53;4.65;;;;;;;;;;10454463;28;20037;-80
2022/05/23 09:32:45;;;;;;;5.90;4.40;;;;;;;;;;10475712;28;20506;-76
2022/05/23 09:38:04;;;;;;;5.47;4.43;;;;;;;;;;10458658;28;20051;-79
2022/05/23 09:48:27;;;;;;;4.57;4.10;;;;;;;;;;10464506;28;20083;-76
2022/05/23 09:53:29;;;;;;;4.83;4.17;;;;;;;;;;10449141;28;20505;-78
2022/05/23 09:58:33;;;;;;;4.60;4.20;;;;;;;;;;10433770;28;20163;-75
2022/05/23 10:03:33;;;;;;;4.32;3.92;;;;;;;;;;10467649;28;20064;-79
2022/05/23 10:08:34;;;;;;;5.68;4.10;;;;;;;;;;10455666;28;20045;-80
2022/05/23 10:13:48;;;;;;;5.30;3.95;;;;;;;;;;10468930;28;20036;-76
2022/05/23 10:18:51;;;;;;;3.92;3.28;;;;;;;;;;10474157;28;20048;-76
2022/05/23 10:23:51;;;;;;;;;;;;;;;;;;10468050;28;20033;-76
2022/05/23 10:29:05;;;;;;;3.80;3.40;;;;;;;;;;10458207;28;20011;-75
2022/05/23 10:34:13;;;;;;;5.90;3.55;;;;;;;;;;10471098;28;20144;-76
2022/05/23 10:44:34;;;;;;;3.85;3.33;;;;;;;;;;10467897;28;20055;-79
2022/05/23 10:49:46;;;;;;;4.43;3.40;;;;;;;;;;10470217;28;20490;-77
2022/05/23 10:54:52;;;;;;;5.35;3.40;;;;;;;;;;10477196;28;20041;-75
2022/05/23 11:00:12;;;;;;;7.63;3.60;;;;;;;;;;10459367;28;20110;-76
2022/05/23 11:05:21;;;;;;;3.53;3.22;;;;;;;;;;10456890;28;20087;-79
2022/05/23 11:10:40;;;;;;;3.58;3.00;;;;;;;;;;10464463;28;20045;-76
2022/05/23 11:15:46;;;;;;;3.95;3.22;;;;;;;;;;10457896;28;20487;-75
2022/05/23 11:20:49;;;;;;;3.63;3.20;;;;;;;;;;10459215;28;20147;-77
2022/05/23 11:25:53;;;;;;;5.65;3.20;;;;;;;;;;10468069;28;20360;-76
2022/05/23 11:36:44;;;;;;;4.82;2.80;;;;;;;;;;10480654;28;20080;-76
2022/05/23 11:41:45;;;;;;;4.95;3.08;;;;;;;;;;10474487;28;20049;-77
2022/05/23 11:47:04;;;;;;;2.88;2.58;;;;;;;;;;10468743;28;20052;-78
2022/05/23 11:52:14;;;;;;;3.90;2.80;;;;;;;;;;10467204;28;20173;-80
2022/05/23 11:57:18;;;;;;;3.50;2.50;;;;;;;;;;10455925;28;20051;-76
2022/05/23 12:02:22;;;;;;;3.53;2.90;;;;;;;;;;10482593;28;20336;-78
2022/05/23 12:07:34;;;;;;;3.65;2.58;;;;;;;;;;10460737;28;20037;-78
2022/05/23 12:12:44;;;;;;;4.45;2.55;;;;;;;;;;10463415;28;20102;-78
2022/05/23 12:17:57;;;;;;;3.47;2.45;;;;;;;;;;10481380;28;20491;-86
2022/05/23 12:23:06;;;;;;;4.43;2.53;;;;;;;;;;10492988;28;20103;-76
2022/05/23 12:28:09;;;;;;;5.72;2.72;;;;;;;;;;10469872;28;20048;-77
2022/05/23 12:33:09;;;;;;;6.93;3.00;;;;;;;;;;10490854;28;20048;-80
2022/05/23 12:38:12;;;;;;;7.80;4.80;;;;;;;;;;10473569;28;20396;-76
2022/05/23 12:43:28;;;;;;;3.47;2.80;;;;;;;;;;10456734;28;20102;-77
2022/05/23 12:48:59;;;;;;;4.97;2.90;;;;;;;;;;10459665;28;20041;-79
2022/05/23 12:54:18;;;;;;;5.18;3.10;;;;;;;;;;10458761;28;20043;-78
2022/05/23 12:59:38;;;;;;;4.97;2.90;;;;;;;;;;10475011;28;20049;-78
2022/05/23 13:04:49;;;;;;;4.50;2.88;;;;;;;;;;10437037;28;20051;-76
2022/05/23 13:09:55;;;;;;;5.38;2.95;;;;;;;;;;10487602;28;20052;-76
2022/05/23 13:14:59;;;;;;;3.28;2.58;;;;;;;;;;10472278;28;20044;-75
2022/05/23 13:25:25;;;;;;;4.43;2.85;;;;;;;;;;10462015;28;20082;-78
2022/05/23 13:30:31;;;;;;;3.50;2.40;;;;;;;;;;10479586;28;20044;-77
2022/05/23 13:35:31;;;;;;;3.85;2.60;;;;;;;;;;10444221;28;20040;-76
2022/05/23 13:40:33;;;;;;;4.23;2.73;;;;;;;;;;10470817;28;20045;-78
2022/05/23 13:45:35;;;;;;;3.92;2.42;;;;;;;;;;10497653;28;20141;-76
2022/05/23 13:50:41;;;;;;;3.63;2.83;;;;;;;;;;10483249;28;20048;-77
2022/05/23 13:55:48;;;;;;;5.40;3.72;;;;;;;;;;10479971;28;20471;-84
2022/05/23 14:00:51;;;;;;;7.10;4.13;;;;;;;;;;10462076;28;20052;-73
2022/05/23 14:05:53;;;;;;;6.55;4.57;;;;;;;;;;10464721;28;20467;-80
2022/05/23 14:10:53;;;;;;;11.37;7.73;;;;;;;;;;10476087;28;20036;-77
2022/05/23 14:15:54;;;;;;;7.47;5.55;;;;;;;;;;10481558;28;20065;-75
2022/05/23 14:20:55;;;;;;;9.97;6.70;;;;;;;;;;10473021;28;20496;-76
2022/05/23 14:25:55;;;;;;;9.45;5.80;;;;;;;;;;10472822;28;20280;-78
2022/05/23 14:31:02;;;;;;;5.33;4.80;;;;;;;;;;10460949;28;20041;-77
2022/05/23 14:36:20;;;;;;;7.82;4.97;;;;;;;;;;10469525;28;20056;-76
2022/05/23 14:41:21;;;;;;;6.68;5.15;;;;;;;;;;10466670;28;20419;-76
2022/05/23 14:46:23;;;;;;;7.63;5.20;;;;;;;;;;10471775;28;20045;-76
2022/05/23 14:51:26;;;;;;;9.07;5.60;;;;;;;;;;10458311;28;23498;-78
2022/05/23 14:56:31;;;;;;;7.38;4.90;;;;;;;;;;10468236;28;20090;-76
2022/05/23 15:01:32;;;;;;;7.80;7.03;;;;;;;;;;10481503;28;20051;-79
2022/05/23 15:06:32;;;;;;;5.30;4.50;;;;;;;;;;10474982;28;20442;-77
2022/05/23 15:11:34;;;;;;;5.50;4.67;;;;;;;;;;10465853;28;20064;-78
2022/05/23 15:16:36;;;;;;;5.25;4.38;;;;;;;;;;10469946;28;20287;-76
2022/05/23 15:21:37;;;;;;;5.57;5.00;;;;;;;;;;10481976;28;20043;-78
2022/05/23 15:26:41;;;;;;;6.35;4.45;;;;;;;;;;10488238;28;20067;-77
2022/05/23 15:31:45;;;;;;;8.32;5.78;;;;;;;;;;10492277;28;20037;-79
2022/05/23 15:36:46;;;;;;;9.35;5.18;;;;;;;;;;10519090;28;20039;-83
2022/05/23 15:41:48;;;;;;;6.22;4.18;;;;;;;;;;10497064;28;20033;-79
2022/05/23 15:46:48;;;;;;;7.07;4.10;;;;;;;;;;10492083;28;20044;-78
2022/05/23 15:51:49;;;;;;;6.15;4.35;;;;;;;;;;10488342;28;20359;-79
2022/05/23 15:56:49;;;;;;;5.70;4.20;;;;;;;;;;10483534;28;20048;-79
2022/05/23 16:01:49;;;;;;;4.07;3.67;;;;;;;;;;10474052;28;20296;-77
2022/05/23 16:06:52;;;;;;;5.78;4.25;;;;;;;;;;10471759;28;20385;-79
2022/05/23 16:11:53;;;;;;;5.80;4.03;;;;;;;;;;10476863;28;20198;-80
2022/05/23 16:16:57;;;;;;;6.45;4.07;;;;;;;;;;10491150;28;20052;-79
2022/05/23 16:22:04;;;;;;;5.60;3.58;;;;;;;;;;10452591;28;20067;-79
2022/05/23 16:27:06;;;;;;;6.15;3.30;;;;;;;;;;10489984;28;20040;-79
2022/05/23 16:32:07;;;;;;;5.40;3.50;;;;;;;;;;10488839;28;20117;-78
2022/05/23 16:37:08;;;;;;;5.25;3.80;;;;;;;;;;10485963;28;20044;-80
2022/05/23 16:42:09;;;;;;;5.07;3.95;;;;;;;;;;10493544;28;20036;-80
2022/05/23 16:47:09;;;;;;;5.73;4.77;;;;;;;;;;10495631;28;20037;-78
2022/05/23 16:52:09;;;;;;;8.43;5.03;;;;;;;;;;10506332;28;20297;-79
2022/05/23 16:57:10;;;;;;;5.03;3.90;;;;;;;;;;10470919;28;20372;-79
2022/05/23 17:02:11;;;;;;;4.90;3.28;;;;;;;;;;10464365;28;20303;-78
2022/05/23 17:07:11;;;;;;;5.30;3.40;;;;;;;;;;10459981;28;20037;-83
2022/05/23 17:12:12;;;;;;;6.32;3.42;;;;;;;;;;10492280;28;20902;-80
2022/05/23 17:17:13;;;;;;;5.00;4.17;;;;;;;;;;10503477;28;20046;-79
2022/05/23 17:22:13;;;;;;;5.40;4.10;;;;;;;;;;10481822;28;20542;-80
2022/05/23 17:27:13;;;;;;;5.20;4.63;;;;;;;;;;10425675;28;20049;-79
2022/05/23 17:32:14;;;;;;;6.38;4.50;;;;;;;;;;10461850;28;20100;-78
2022/05/23 17:37:14;;;;;;;7.90;5.68;;;;;;;;;;10440158;28;20071;-79
2022/05/23 17:42:15;;;;;;;6.07;4.80;;;;;;;;;;10463284;28;20045;-79
2022/05/23 17:47:15;;;;;;;7.50;4.83;;;;;;;;;;10478099;28;20059;-78
2022/05/23 17:52:18;;;;;;;6.17;4.33;;;;;;;;;;10429158;28;20354;-77
2022/05/23 17:57:18;;;;;;;7.38;3.70;;;;;;;;;;10450439;28;20056;-77
2022/05/23 18:02:19;;;;;;;7.60;4.18;;;;;;;;;;10433812;28;20040;-79
2022/05/23 18:07:19;;;;;;;6.47;3.42;;;;;;;;;;10447701;28;20074;-79
2022/05/23 18:12:20;;;;;;;5.45;3.35;;;;;;;;;;10460939;28;20068;-76
2022/05/23 18:22:40;;;;;;;6.63;3.55;;;;;;;;;;10484006;28;20064;-79
2022/05/23 18:27:40;;;;;;;9.23;5.13;;;;;;;;;;10449412;28;20051;-76
2022/05/23 18:32:41;;;;;;;4.90;3.08;;;;;;;;;;10477972;28;20052;-78
2022/05/23 18:37:43;;;;;;;7.10;3.25;;;;;;;;;;10461547;28;20098;-79
2022/05/23 18:42:49;;;;;;;7.72;2.90;;;;;;;;;;10451882;28;20144;-82
2022/05/23 18:53:11;;;;;;;8.48;2.90;;;;;;;;;;10458008;28;20098;-77
2022/05/23 18:58:16;;;;;;;6.80;2.70;;;;;;;;;;10445106;28;20607;-78
2022/05/23 19:03:21;;;;;;;5.45;2.72;;;;;;;;;;10477389;28;20045;-80
2022/05/23 19:08:24;;;;;;;7.65;2.83;;;;;;;;;;10476666;28;20100;-79
2022/05/23 19:13:24;;;;;;;5.57;3.10;;;;;;;;;;10493201;28;20092;-77
2022/05/23 19:18:25;;;;;;;5.47;3.60;;;;;;;;;;10470067;28;20074;-79
2022/05/23 19:23:26;;;;;;;6.50;3.42;;;;;;;;;;10442288;28;20114;-78
2022/05/23 19:28:29;;;;;;;6.32;3.40;;;;;;;;;;10463314;28;20090;-80
2022/05/23 19:33:29;;;;;;;7.03;2.90;;;;;;;;;;10445849;28;20132;-78
2022/05/23 19:38:30;;;;;;;4.77;3.17;;;;;;;;;;10418104;28;20045;-80
2022/05/23 19:43:30;;;;;;;5.60;3.08;;;;;;;;;;10470920;28;20274;-78
2022/05/23 19:48:31;;;;;;;5.32;3.22;;;;;;;;;;10457234;28;20039;-76
2022/05/23 19:53:31;;;;;;;5.15;2.78;;;;;;;;;;10444496;28;20517;-79
2022/05/23 19:58:32;;;;;;;4.45;2.22;;;;;;;;;;10442067;28;20128;-79
2022/05/23 20:08:54;;;;;;;4.30;2.88;;;;;;;;;;10471134;28;20116;-77
2022/05/23 20:13:55;;;;;;;4.45;2.72;;;;;;;;;;10477554;28;20044;-79
2022/05/23 20:18:57;;;;;;;5.60;3.13;;;;;;;;;;10463758;28;20159;-80
2022/05/23 20:23:59;;;;;;;5.38;2.42;;;;;;;;;;10468792;28;20051;-82
2022/05/23 20:29:01;;;;;;;4.35;2.63;;;;;;;;;;10480956;28;20047;-81
2022/05/23 20:34:01;;;;;;;3.40;2.50;;;;;;;;;;10517577;28;20107;-79
2022/05/23 20:39:02;;;;;;;4.15;2.50;;;;;;;;;;10463405;28;20087;-79
2022/05/23 20:44:03;;;;;;;4.90;2.10;;;;;;;;;;10473901;28;20105;-77
2022/05/23 20:49:05;;;;;;;5.80;2.40;;;;;;;;;;10462904;28;20052;-79
2022/05/23 20:54:05;;;;;;;6.67;2.77;;;;;;;;;;10490641;28;20330;-77
2022/05/23 20:59:05;;;;;;;5.33;2.70;;;;;;;;;;10464695;28;20419;-77
2022/05/23 21:04:09;;;;;;;4.18;2.00;;;;;;;;;;10488160;28;20090;-77
2022/05/23 21:09:11;;;;;;;4.22;2.75;;;;;;;;;;10465414;28;20407;-77
2022/05/23 21:14:25;;;;;;;4.43;2.42;;;;;;;;;;10459635;28;20083;-79
2022/05/23 21:19:28;;;;;;;4.95;2.50;;;;;;;;;;10471254;28;20132;-79
2022/05/23 21:24:29;;;;;;;5.00;2.42;;;;;;;;;;10441442;28;20451;-78
2022/05/23 21:29:30;;;;;;;5.28;2.38;;;;;;;;;;10469581;28;20044;-79
2022/05/23 21:34:30;;;;;;;4.70;2.28;;;;;;;;;;10465228;28;20400;-76
2022/05/23 21:39:31;;;;;;;5.90;2.20;;;;;;;;;;10429915;28;20048;-76
2022/05/23 21:49:50;;;;;;;6.88;2.63;;;;;;;;;;10468875;28;20041;-77
2022/05/23 21:54:51;;;;;;;7.53;2.93;;;;;;;;;;10438300;28;20064;-78
2022/05/23 21:59:52;;;;;;;4.28;2.50;;;;;;;;;;10468132;28;20747;-77
2022/05/23 22:04:52;;;;;;;4.45;2.30;;;;;;;;;;10482054;28;20048;-78
2022/05/23 22:09:53;;;;;;;5.40;2.35;;;;;;;;;;10504106;28;20067;-80
2022/05/23 22:14:55;;;;;;;3.67;1.77;;;;;;;;;;10476735;28;20047;-79
2022/05/23 22:19:55;;;;;;;6.65;2.47;;;;;;;;;;10490948;28;20356;-75
2022/05/23 22:24:58;;;;;;;5.47;2.40;;;;;;;;;;10462128;28;20044;-77
2022/05/23 22:29:58;;;;;;;4.32;2.20;;;;;;;;;;10467584;28;20060;-77
2022/05/23 22:34:59;;;;;;;4.97;2.50;;;;;;;;;;10473078;28;20432;-78
2022/05/23 22:40:04;;;;;;;5.30;2.50;;;;;;;;;;10449293;28;20652;-75
2022/05/23 22:45:06;;;;;;;5.80;2.70;;;;;;;;;;10414377;28;20072;-77
2022/05/23 22:50:08;;;;;;;5.30;2.75;;;;;;;;;;10467038;28;20044;-77
2022/05/23 22:55:09;;;;;;;8.18;2.63;;;;;;;;;;10446576;28;20404;-76
2022/05/23 23:00:10;;;;;;;5.80;2.85;;;;;;;;;;10454049;28;20767;-78
2022/05/23 23:05:11;;;;;;;5.20;3.10;;;;;;;;;;10443876;28;20045;-78
2022/05/23 23:10:12;;;;;;;6.20;2.85;;;;;;;;;;10460776;28;20044;-77
2022/05/23 23:15:15;;;;;;;4.28;2.50;;;;;;;;;;10447091;28;20522;-75
2022/05/23 23:20:16;;;;;;;4.75;2.33;;;;;;;;;;10450925;28;20132;-76
2022/05/23 23:25:17;;;;;;;5.47;2.80;;;;;;;;;;10447827;28;20043;-76
2022/05/23 23:30:19;;;;;;;7.22;2.78;;;;;;;;;;10410778;28;20051;-75
2022/05/23 23:40:39;;;;;;;6.78;3.33;;;;;;;;;;10450713;28;20452;-77
2022/05/23 23:45:40;;;;;;;4.20;2.92;;;;;;;;;;10479303;28;20132;-76
2022/05/23 23:50:41;;;;;;;4.20;3.03;;;;;;;;;;10468618;28;20068;-77
2022/05/23 23:55:41;;;;;;;5.68;3.08;;;;;;;;;;10452324;28;20432;-76
